sensor_id;sensor_type;location;lat;lon;timestamp;P1;durP1;ratioP1;P2;durP2;ratioP2
6438;SDS011;3252;52.540;13.290;2022-08-19T00:01:52;11.20;;;8.90;;
6438;SDS011;3252;52.540;13.290;2022-08-19T00:03:57;10.45;;;9.45;;
6438;SDS011;3252;52.540;13.290;2022-08-19T00:06:00;10.93;;;8.90;;
6438;SDS011;3252;52.540;13.290;2022-08-19T00:08:02;10.20;;;9.13;;
6438;SDS011;3252;52.540;13.290;2022-08-19T00:10:05;9.73;;;8.68;;
6438;SDS011;3252;52.540;13.290;2022-08-19T00:12:08;10.02;;;9.02;;
6438;SDS011;3252;52.540;13.290;2022-08-19T00:14:11;10.32;;;9.27;;
6438;SDS011;3252;52.540;13.290;2022-08-19T00:16:15;10.55;;;9.10;;
6438;SDS011;3252;52.540;13.290;2022-08-19T00:18:18;10.55;;;9.50;;
6438;SDS011;3252;52.540;13.290;2022-08-19T00:20:21;11.40;;;9.52;;
6438;SDS011;3252;52.540;13.290;2022-08-19T00:22:24;10.80;;;9.70;;
6438;SDS011;3252;52.540;13.290;2022-08-19T00:24:27;10.75;;;9.65;;
6438;SDS011;3252;52.540;13.290;2022-08-19T00:26:29;9.65;;;8.65;;
6438;SDS011;3252;52.540;13.290;2022-08-19T00:28:32;10.60;;;9.50;;
6438;SDS011;3252;52.540;13.290;2022-08-19T00:30:35;10.27;;;9.20;;
6438;SDS011;3252;52.540;13.290;2022-08-19T00:32:38;9.93;;;8.93;;
6438;SDS011;3252;52.540;13.290;2022-08-19T00:34:40;10.40;;;9.45;;
6438;SDS011;3252;52.540;13.290;2022-08-19T00:36:44;10.48;;;8.73;;
6438;SDS011;3252;52.540;13.290;2022-08-19T00:38:46;10.38;;;9.18;;
6438;SDS011;3252;52.540;13.290;2022-08-19T00:40:48;10.88;;;9.77;;
6438;SDS011;3252;52.540;13.290;2022-08-19T00:42:50;11.38;;;9.57;;
6438;SDS011;3252;52.540;13.290;2022-08-19T00:44:54;10.82;;;9.65;;
6438;SDS011;3252;52.540;13.290;2022-08-19T00:46:57;10.35;;;9.27;;
6438;SDS011;3252;52.540;13.290;2022-08-19T00:49:00;10.05;;;9.02;;
6438;SDS011;3252;52.540;13.290;2022-08-19T00:51:14;11.77;;;9.27;;
6438;SDS011;3252;52.540;13.290;2022-08-19T00:53:18;12.25;;;10.05;;
6438;SDS011;3252;52.540;13.290;2022-08-19T00:55:23;11.98;;;9.70;;
6438;SDS011;3252;52.540;13.290;2022-08-19T00:57:30;11.05;;;9.00;;
6438;SDS011;3252;52.540;13.290;2022-08-19T00:59:37;10.70;;;9.57;;
6438;SDS011;3252;52.540;13.290;2022-08-19T01:01:41;9.63;;;8.63;;
6438;SDS011;3252;52.540;13.290;2022-08-19T01:03:44;9.38;;;8.48;;
6438;SDS011;3252;52.540;13.290;2022-08-19T01:05:47;11.57;;;9.23;;
6438;SDS011;3252;52.540;13.290;2022-08-19T01:07:51;11.60;;;9.25;;
6438;SDS011;3252;52.540;13.290;2022-08-19T01:09:55;14.25;;;10.27;;
6438;SDS011;3252;52.540;13.290;2022-08-19T01:11:57;13.45;;;10.68;;
6438;SDS011;3252;52.540;13.290;2022-08-19T01:13:59;13.90;;;10.30;;
6438;SDS011;3252;52.540;13.290;2022-08-19T01:16:03;17.63;;;10.80;;
6438;SDS011;3252;52.540;13.290;2022-08-19T01:18:09;16.17;;;10.80;;
6438;SDS011;3252;52.540;13.290;2022-08-19T01:20:17;14.02;;;9.85;;
6438;SDS011;3252;52.540;13.290;2022-08-19T01:22:28;18.20;;;10.55;;
6438;SDS011;3252;52.540;13.290;2022-08-19T01:24:33;12.10;;;9.90;;
6438;SDS011;3252;52.540;13.290;2022-08-19T01:26:38;11.43;;;9.43;;
6438;SDS011;3252;52.540;13.290;2022-08-19T01:28:44;15.55;;;10.85;;
6438;SDS011;3252;52.540;13.290;2022-08-19T01:30:48;13.52;;;10.95;;
6438;SDS011;3252;52.540;13.290;2022-08-19T01:32:50;15.07;;;11.50;;
6438;SDS011;3252;52.540;13.290;2022-08-19T01:34:53;15.90;;;12.00;;
6438;SDS011;3252;52.540;13.290;2022-08-19T01:36:54;13.57;;;11.73;;
6438;SDS011;3252;52.540;13.290;2022-08-19T01:38:58;17.33;;;11.90;;
6438;SDS011;3252;52.540;13.290;2022-08-19T01:41:01;16.73;;;12.05;;
6438;SDS011;3252;52.540;13.290;2022-08-19T01:43:03;17.13;;;11.40;;
6438;SDS011;3252;52.540;13.290;2022-08-19T01:45:06;16.05;;;11.43;;
6438;SDS011;3252;52.540;13.290;2022-08-19T01:47:09;15.35;;;10.98;;
6438;SDS011;3252;52.540;13.290;2022-08-19T01:49:11;15.77;;;10.30;;
6438;SDS011;3252;52.540;13.290;2022-08-19T01:51:13;15.77;;;11.50;;
6438;SDS011;3252;52.540;13.290;2022-08-19T01:53:16;14.70;;;10.63;;
6438;SDS011;3252;52.540;13.290;2022-08-19T01:55:20;14.77;;;10.73;;
6438;SDS011;3252;52.540;13.290;2022-08-19T01:57:24;16.38;;;11.98;;
6438;SDS011;3252;52.540;13.290;2022-08-19T01:59:26;19.17;;;11.05;;
6438;SDS011;3252;52.540;13.290;2022-08-19T02:01:29;15.93;;;10.95;;
6438;SDS011;3252;52.540;13.290;2022-08-19T02:03:33;14.77;;;10.50;;
6438;SDS011;3252;52.540;13.290;2022-08-19T02:05:35;12.32;;;10.30;;
6438;SDS011;3252;52.540;13.290;2022-08-19T02:07:38;13.93;;;10.75;;
6438;SDS011;3252;52.540;13.290;2022-08-19T02:09:41;13.30;;;10.60;;
6438;SDS011;3252;52.540;13.290;2022-08-19T02:11:44;15.15;;;11.52;;
6438;SDS011;3252;52.540;13.290;2022-08-19T02:13:46;18.10;;;10.50;;
6438;SDS011;3252;52.540;13.290;2022-08-19T02:15:49;12.23;;;10.65;;
6438;SDS011;3252;52.540;13.290;2022-08-19T02:17:51;12.18;;;10.00;;
6438;SDS011;3252;52.540;13.290;2022-08-19T02:19:54;11.07;;;9.82;;
6438;SDS011;3252;52.540;13.290;2022-08-19T02:21:57;12.73;;;10.48;;
6438;SDS011;3252;52.540;13.290;2022-08-19T02:23:59;13.88;;;10.13;;
6438;SDS011;3252;52.540;13.290;2022-08-19T02:26:02;12.00;;;9.90;;
6438;SDS011;3252;52.540;13.290;2022-08-19T02:28:06;13.88;;;11.02;;
6438;SDS011;3252;52.540;13.290;2022-08-19T02:30:10;13.27;;;10.40;;
6438;SDS011;3252;52.540;13.290;2022-08-19T02:32:19;13.02;;;11.00;;
6438;SDS011;3252;52.540;13.290;2022-08-19T02:34:21;12.50;;;10.05;;
6438;SDS011;3252;52.540;13.290;2022-08-19T02:36:25;11.65;;;10.40;;
6438;SDS011;3252;52.540;13.290;2022-08-19T02:38:27;13.88;;;9.95;;
6438;SDS011;3252;52.540;13.290;2022-08-19T02:40:29;12.43;;;10.25;;
6438;SDS011;3252;52.540;13.290;2022-08-19T02:42:34;12.75;;;9.68;;
6438;SDS011;3252;52.540;13.290;2022-08-19T02:44:37;12.13;;;9.77;;
6438;SDS011;3252;52.540;13.290;2022-08-19T02:46:39;11.10;;;10.00;;
6438;SDS011;3252;52.540;13.290;2022-08-19T02:48:41;10.68;;;9.02;;
6438;SDS011;3252;52.540;13.290;2022-08-19T02:50:44;11.95;;;9.18;;
6438;SDS011;3252;52.540;13.290;2022-08-19T02:52:46;10.43;;;9.43;;
6438;SDS011;3252;52.540;13.290;2022-08-19T02:54:48;13.43;;;9.60;;
6438;SDS011;3252;52.540;13.290;2022-08-19T02:56:50;11.75;;;9.35;;
6438;SDS011;3252;52.540;13.290;2022-08-19T02:58:52;12.25;;;11.00;;
6438;SDS011;3252;52.540;13.290;2022-08-19T03:00:56;11.60;;;10.35;;
6438;SDS011;3252;52.540;13.290;2022-08-19T03:02:59;11.82;;;10.57;;
6438;SDS011;3252;52.540;13.290;2022-08-19T03:05:02;12.00;;;10.00;;
6438;SDS011;3252;52.540;13.290;2022-08-19T03:07:07;11.43;;;9.77;;
6438;SDS011;3252;52.540;13.290;2022-08-19T03:09:09;14.43;;;10.77;;
6438;SDS011;3252;52.540;13.290;2022-08-19T03:11:12;11.97;;;10.70;;
6438;SDS011;3252;52.540;13.290;2022-08-19T03:13:16;12.70;;;10.68;;
6438;SDS011;3252;52.540;13.290;2022-08-19T03:15:19;13.20;;;10.15;;
6438;SDS011;3252;52.540;13.290;2022-08-19T03:17:22;12.60;;;10.80;;
6438;SDS011;3252;52.540;13.290;2022-08-19T03:19:25;12.05;;;10.45;;
6438;SDS011;3252;52.540;13.290;2022-08-19T03:21:28;13.00;;;10.33;;
6438;SDS011;3252;52.540;13.290;2022-08-19T03:23:32;12.63;;;11.27;;
6438;SDS011;3252;52.540;13.290;2022-08-19T03:25:36;11.93;;;10.73;;
6438;SDS011;3252;52.540;13.290;2022-08-19T03:27:39;11.18;;;10.05;;
6438;SDS011;3252;52.540;13.290;2022-08-19T03:29:41;12.45;;;11.00;;
6438;SDS011;3252;52.540;13.290;2022-08-19T03:31:43;13.18;;;10.95;;
6438;SDS011;3252;52.540;13.290;2022-08-19T03:33:48;11.88;;;10.70;;
6438;SDS011;3252;52.540;13.290;2022-08-19T03:36:00;13.75;;;11.73;;
6438;SDS011;3252;52.540;13.290;2022-08-19T03:38:07;14.00;;;11.67;;
6438;SDS011;3252;52.540;13.290;2022-08-19T03:40:09;15.82;;;12.68;;
6438;SDS011;3252;52.540;13.290;2022-08-19T03:42:12;15.93;;;12.38;;
6438;SDS011;3252;52.540;13.290;2022-08-19T03:44:14;16.03;;;14.37;;
6438;SDS011;3252;52.540;13.290;2022-08-19T03:46:21;14.63;;;12.20;;
6438;SDS011;3252;52.540;13.290;2022-08-19T03:48:24;13.23;;;11.70;;
6438;SDS011;3252;52.540;13.290;2022-08-19T03:50:28;14.05;;;12.02;;
6438;SDS011;3252;52.540;13.290;2022-08-19T03:52:30;15.07;;;11.77;;
6438;SDS011;3252;52.540;13.290;2022-08-19T03:54:32;14.43;;;11.60;;
6438;SDS011;3252;52.540;13.290;2022-08-19T03:56:36;12.27;;;11.00;;
6438;SDS011;3252;52.540;13.290;2022-08-19T03:58:40;12.00;;;10.80;;
6438;SDS011;3252;52.540;13.290;2022-08-19T04:00:42;13.88;;;10.43;;
6438;SDS011;3252;52.540;13.290;2022-08-19T04:02:45;12.35;;;11.05;;
6438;SDS011;3252;52.540;13.290;2022-08-19T04:04:47;12.57;;;10.87;;
6438;SDS011;3252;52.540;13.290;2022-08-19T04:06:50;13.93;;;10.70;;
6438;SDS011;3252;52.540;13.290;2022-08-19T04:08:54;16.05;;;11.68;;
6438;SDS011;3252;52.540;13.290;2022-08-19T04:10:57;13.00;;;11.60;;
6438;SDS011;3252;52.540;13.290;2022-08-19T04:13:00;15.15;;;11.65;;
6438;SDS011;3252;52.540;13.290;2022-08-19T04:15:04;13.90;;;11.57;;
6438;SDS011;3252;52.540;13.290;2022-08-19T04:17:08;14.27;;;10.57;;
6438;SDS011;3252;52.540;13.290;2022-08-19T04:19:11;15.20;;;11.60;;
6438;SDS011;3252;52.540;13.290;2022-08-19T04:21:15;14.43;;;11.57;;
6438;SDS011;3252;52.540;13.290;2022-08-19T04:23:20;14.77;;;11.40;;
6438;SDS011;3252;52.540;13.290;2022-08-19T04:25:22;17.53;;;15.47;;
6438;SDS011;3252;52.540;13.290;2022-08-19T04:27:24;15.23;;;13.60;;
6438;SDS011;3252;52.540;13.290;2022-08-19T04:29:26;13.10;;;11.35;;
6438;SDS011;3252;52.540;13.290;2022-08-19T04:31:31;13.80;;;12.48;;
6438;SDS011;3252;52.540;13.290;2022-08-19T04:33:35;13.45;;;11.90;;
6438;SDS011;3252;52.540;13.290;2022-08-19T04:35:38;12.00;;;10.80;;
6438;SDS011;3252;52.540;13.290;2022-08-19T04:37:41;12.47;;;10.67;;
6438;SDS011;3252;52.540;13.290;2022-08-19T04:39:44;12.27;;;10.97;;
6438;SDS011;3252;52.540;13.290;2022-08-19T04:42:04;13.50;;;10.98;;
6438;SDS011;3252;52.540;13.290;2022-08-19T04:44:23;12.73;;;10.10;;
6438;SDS011;3252;52.540;13.290;2022-08-19T04:46:25;12.43;;;10.63;;
6438;SDS011;3252;52.540;13.290;2022-08-19T04:48:30;12.40;;;9.70;;
6438;SDS011;3252;52.540;13.290;2022-08-19T04:50:32;17.38;;;15.52;;
6438;SDS011;3252;52.540;13.290;2022-08-19T04:52:36;12.43;;;10.85;;
6438;SDS011;3252;52.540;13.290;2022-08-19T04:54:39;10.15;;;9.15;;
6438;SDS011;3252;52.540;13.290;2022-08-19T04:56:42;13.32;;;10.48;;
6438;SDS011;3252;52.540;13.290;2022-08-19T04:58:51;11.55;;;9.70;;
6438;SDS011;3252;52.540;13.290;2022-08-19T05:00:54;12.27;;;9.93;;
6438;SDS011;3252;52.540;13.290;2022-08-19T05:02:56;12.02;;;9.35;;
6438;SDS011;3252;52.540;13.290;2022-08-19T05:04:58;11.95;;;9.68;;
6438;SDS011;3252;52.540;13.290;2022-08-19T05:07:01;11.18;;;9.65;;
6438;SDS011;3252;52.540;13.290;2022-08-19T05:09:03;11.43;;;10.13;;
6438;SDS011;3252;52.540;13.290;2022-08-19T05:11:07;11.25;;;9.68;;
6438;SDS011;3252;52.540;13.290;2022-08-19T05:13:12;12.13;;;10.30;;
6438;SDS011;3252;52.540;13.290;2022-08-19T05:15:15;12.43;;;8.77;;
6438;SDS011;3252;52.540;13.290;2022-08-19T05:17:19;16.63;;;9.63;;
6438;SDS011;3252;52.540;13.290;2022-08-19T05:19:21;11.18;;;9.95;;
6438;SDS011;3252;52.540;13.290;2022-08-19T05:21:41;10.93;;;9.82;;
6438;SDS011;3252;52.540;13.290;2022-08-19T05:24:02;11.30;;;8.50;;
6438;SDS011;3252;52.540;13.290;2022-08-19T05:26:08;15.48;;;9.70;;
6438;SDS011;3252;52.540;13.290;2022-08-19T05:28:13;11.63;;;9.32;;
6438;SDS011;3252;52.540;13.290;2022-08-19T05:30:15;10.52;;;8.93;;
6438;SDS011;3252;52.540;13.290;2022-08-19T05:32:18;11.10;;;9.65;;
6438;SDS011;3252;52.540;13.290;2022-08-19T05:34:22;10.18;;;9.18;;
6438;SDS011;3252;52.540;13.290;2022-08-19T05:36:26;11.80;;;10.27;;
6438;SDS011;3252;52.540;13.290;2022-08-19T05:38:29;12.13;;;9.82;;
6438;SDS011;3252;52.540;13.290;2022-08-19T05:40:31;13.85;;;9.77;;
6438;SDS011;3252;52.540;13.290;2022-08-19T05:42:36;10.63;;;9.57;;
6438;SDS011;3252;52.540;13.290;2022-08-19T05:44:40;15.77;;;10.23;;
6438;SDS011;3252;52.540;13.290;2022-08-19T05:46:44;11.05;;;9.70;;
6438;SDS011;3252;52.540;13.290;2022-08-19T05:48:47;11.27;;;10.10;;
6438;SDS011;3252;52.540;13.290;2022-08-19T05:50:49;13.85;;;9.57;;
6438;SDS011;3252;52.540;13.290;2022-08-19T05:52:51;11.00;;;9.27;;
6438;SDS011;3252;52.540;13.290;2022-08-19T05:54:53;13.20;;;10.23;;
6438;SDS011;3252;52.540;13.290;2022-08-19T05:56:56;11.25;;;10.00;;
6438;SDS011;3252;52.540;13.290;2022-08-19T05:58:58;11.75;;;10.02;;
6438;SDS011;3252;52.540;13.290;2022-08-19T06:01:02;12.85;;;9.52;;
6438;SDS011;3252;52.540;13.290;2022-08-19T06:03:05;15.27;;;10.23;;
6438;SDS011;3252;52.540;13.290;2022-08-19T06:05:08;13.35;;;9.68;;
6438;SDS011;3252;52.540;13.290;2022-08-19T06:07:13;12.60;;;10.95;;
6438;SDS011;3252;52.540;13.290;2022-08-19T06:09:16;14.25;;;10.38;;
6438;SDS011;3252;52.540;13.290;2022-08-19T06:11:19;12.48;;;10.27;;
6438;SDS011;3252;52.540;13.290;2022-08-19T06:13:23;13.20;;;10.40;;
6438;SDS011;3252;52.540;13.290;2022-08-19T06:15:26;12.60;;;10.98;;
6438;SDS011;3252;52.540;13.290;2022-08-19T06:17:30;11.65;;;10.00;;
6438;SDS011;3252;52.540;13.290;2022-08-19T06:19:32;11.02;;;9.93;;
6438;SDS011;3252;52.540;13.290;2022-08-19T06:21:35;12.13;;;10.73;;
6438;SDS011;3252;52.540;13.290;2022-08-19T06:23:38;13.23;;;10.68;;
6438;SDS011;3252;52.540;13.290;2022-08-19T06:25:40;11.82;;;9.85;;
6438;SDS011;3252;52.540;13.290;2022-08-19T06:27:42;12.98;;;10.82;;
6438;SDS011;3252;52.540;13.290;2022-08-19T06:29:45;12.90;;;10.93;;
6438;SDS011;3252;52.540;13.290;2022-08-19T06:31:49;13.05;;;10.32;;
6438;SDS011;3252;52.540;13.290;2022-08-19T06:33:53;11.82;;;10.55;;
6438;SDS011;3252;52.540;13.290;2022-08-19T06:35:55;13.35;;;10.15;;
6438;SDS011;3252;52.540;13.290;2022-08-19T06:37:57;14.95;;;11.77;;
6438;SDS011;3252;52.540;13.290;2022-08-19T06:40:00;12.00;;;10.50;;
6438;SDS011;3252;52.540;13.290;2022-08-19T06:42:03;15.18;;;11.00;;
6438;SDS011;3252;52.540;13.290;2022-08-19T06:44:09;12.27;;;10.68;;
6438;SDS011;3252;52.540;13.290;2022-08-19T06:46:12;14.35;;;10.63;;
6438;SDS011;3252;52.540;13.290;2022-08-19T06:48:15;14.38;;;11.02;;
6438;SDS011;3252;52.540;13.290;2022-08-19T06:50:18;11.88;;;10.75;;
6438;SDS011;3252;52.540;13.290;2022-08-19T06:52:21;12.75;;;10.80;;
6438;SDS011;3252;52.540;13.290;2022-08-19T06:54:23;11.57;;;10.43;;
6438;SDS011;3252;52.540;13.290;2022-08-19T06:56:26;13.38;;;10.55;;
6438;SDS011;3252;52.540;13.290;2022-08-19T06:58:34;13.38;;;11.38;;
6438;SDS011;3252;52.540;13.290;2022-08-19T07:00:40;11.77;;;10.60;;
6438;SDS011;3252;52.540;13.290;2022-08-19T07:02:42;12.90;;;11.70;;
6438;SDS011;3252;52.540;13.290;2022-08-19T07:04:45;16.95;;;12.43;;
6438;SDS011;3252;52.540;13.290;2022-08-19T07:06:48;15.82;;;12.73;;
6438;SDS011;3252;52.540;13.290;2022-08-19T07:08:51;14.75;;;12.93;;
6438;SDS011;3252;52.540;13.290;2022-08-19T07:10:53;20.30;;;14.93;;
6438;SDS011;3252;52.540;13.290;2022-08-19T07:12:55;13.93;;;12.52;;
6438;SDS011;3252;52.540;13.290;2022-08-19T07:14:57;14.27;;;11.88;;
6438;SDS011;3252;52.540;13.290;2022-08-19T07:16:59;16.50;;;12.05;;
6438;SDS011;3252;52.540;13.290;2022-08-19T07:19:01;15.30;;;13.30;;
6438;SDS011;3252;52.540;13.290;2022-08-19T07:21:04;14.77;;;12.55;;
6438;SDS011;3252;52.540;13.290;2022-08-19T07:23:09;14.88;;;11.57;;
6438;SDS011;3252;52.540;13.290;2022-08-19T07:25:11;16.42;;;11.60;;
6438;SDS011;3252;52.540;13.290;2022-08-19T07:27:13;14.25;;;12.73;;
6438;SDS011;3252;52.540;13.290;2022-08-19T07:29:16;13.48;;;12.02;;
6438;SDS011;3252;52.540;13.290;2022-08-19T07:31:20;14.57;;;11.85;;
6438;SDS011;3252;52.540;13.290;2022-08-19T07:33:23;13.77;;;12.23;;
6438;SDS011;3252;52.540;13.290;2022-08-19T07:35:27;13.25;;;11.95;;
6438;SDS011;3252;52.540;13.290;2022-08-19T07:37:29;14.00;;;12.60;;
6438;SDS011;3252;52.540;13.290;2022-08-19T07:39:33;14.40;;;12.95;;
6438;SDS011;3252;52.540;13.290;2022-08-19T07:41:37;14.27;;;12.75;;
6438;SDS011;3252;52.540;13.290;2022-08-19T07:43:39;16.17;;;12.50;;
6438;SDS011;3252;52.540;13.290;2022-08-19T07:45:43;14.27;;;12.77;;
6438;SDS011;3252;52.540;13.290;2022-08-19T07:47:45;14.43;;;12.98;;
6438;SDS011;3252;52.540;13.290;2022-08-19T07:49:47;14.00;;;12.45;;
6438;SDS011;3252;52.540;13.290;2022-08-19T07:51:51;14.27;;;12.88;;
6438;SDS011;3252;52.540;13.290;2022-08-19T07:53:55;15.82;;;12.77;;
6438;SDS011;3252;52.540;13.290;2022-08-19T07:55:58;14.98;;;13.35;;
6438;SDS011;3252;52.540;13.290;2022-08-19T07:58:03;15.07;;;13.48;;
6438;SDS011;3252;52.540;13.290;2022-08-19T08:00:06;14.48;;;12.77;;
6438;SDS011;3252;52.540;13.290;2022-08-19T08:02:12;14.45;;;12.48;;
6438;SDS011;3252;52.540;13.290;2022-08-19T08:04:14;16.25;;;13.95;;
6438;SDS011;3252;52.540;13.290;2022-08-19T08:06:33;19.65;;;16.55;;
6438;SDS011;3252;52.540;13.290;2022-08-19T08:08:53;18.27;;;15.32;;
6438;SDS011;3252;52.540;13.290;2022-08-19T08:11:19;16.10;;;13.95;;
6438;SDS011;3252;52.540;13.290;2022-08-19T08:13:22;15.18;;;13.57;;
6438;SDS011;3252;52.540;13.290;2022-08-19T08:15:24;15.45;;;13.85;;
6438;SDS011;3252;52.540;13.290;2022-08-19T08:17:26;16.40;;;13.35;;
6438;SDS011;3252;52.540;13.290;2022-08-19T08:19:30;15.48;;;13.48;;
6438;SDS011;3252;52.540;13.290;2022-08-19T08:21:32;13.80;;;12.48;;
6438;SDS011;3252;52.540;13.290;2022-08-19T08:23:34;17.85;;;13.25;;
6438;SDS011;3252;52.540;13.290;2022-08-19T08:25:36;13.77;;;12.25;;
6438;SDS011;3252;52.540;13.290;2022-08-19T08:27:41;16.73;;;12.77;;
6438;SDS011;3252;52.540;13.290;2022-08-19T08:29:44;14.68;;;12.50;;
6438;SDS011;3252;52.540;13.290;2022-08-19T08:31:48;13.30;;;11.90;;
6438;SDS011;3252;52.540;13.290;2022-08-19T08:33:50;16.15;;;13.40;;
6438;SDS011;3252;52.540;13.290;2022-08-19T08:35:52;15.90;;;12.60;;
6438;SDS011;3252;52.540;13.290;2022-08-19T08:37:54;14.25;;;12.75;;
6438;SDS011;3252;52.540;13.290;2022-08-19T08:39:57;15.70;;;12.48;;
6438;SDS011;3252;52.540;13.290;2022-08-19T08:42:01;14.13;;;12.13;;
6438;SDS011;3252;52.540;13.290;2022-08-19T08:44:15;15.23;;;11.88;;
6438;SDS011;3252;52.540;13.290;2022-08-19T08:46:23;15.70;;;13.55;;
6438;SDS011;3252;52.540;13.290;2022-08-19T08:48:32;14.20;;;12.80;;
6438;SDS011;3252;52.540;13.290;2022-08-19T08:50:42;14.00;;;12.45;;
6438;SDS011;3252;52.540;13.290;2022-08-19T08:52:48;15.02;;;13.35;;
6438;SDS011;3252;52.540;13.290;2022-08-19T08:54:54;15.38;;;13.25;;
6438;SDS011;3252;52.540;13.290;2022-08-19T08:56:58;17.25;;;14.25;;
6438;SDS011;3252;52.540;13.290;2022-08-19T08:59:03;18.63;;;14.50;;
6438;SDS011;3252;52.540;13.290;2022-08-19T09:01:11;18.83;;;14.93;;
6438;SDS011;3252;52.540;13.290;2022-08-19T09:03:16;13.93;;;12.52;;
6438;SDS011;3252;52.540;13.290;2022-08-19T09:05:20;12.93;;;11.70;;
6438;SDS011;3252;52.540;13.290;2022-08-19T09:07:34;19.42;;;14.80;;
6438;SDS011;3252;52.540;13.290;2022-08-19T09:09:43;17.08;;;13.73;;
6438;SDS011;3252;52.540;13.290;2022-08-19T09:11:55;14.13;;;12.27;;
6438;SDS011;3252;52.540;13.290;2022-08-19T09:14:03;14.98;;;13.38;;
6438;SDS011;3252;52.540;13.290;2022-08-19T09:16:12;18.90;;;13.43;;
6438;SDS011;3252;52.540;13.290;2022-08-19T09:18:18;15.23;;;12.85;;
6438;SDS011;3252;52.540;13.290;2022-08-19T09:20:21;15.52;;;13.27;;
6438;SDS011;3252;52.540;13.290;2022-08-19T09:22:24;18.90;;;13.05;;
6438;SDS011;3252;52.540;13.290;2022-08-19T09:24:27;14.38;;;12.82;;
6438;SDS011;3252;52.540;13.290;2022-08-19T09:26:29;14.32;;;12.82;;
6438;SDS011;3252;52.540;13.290;2022-08-19T09:28:32;15.25;;;13.18;;
6438;SDS011;3252;52.540;13.290;2022-08-19T09:30:38;18.80;;;13.82;;
6438;SDS011;3252;52.540;13.290;2022-08-19T09:32:43;16.15;;;12.43;;
6438;SDS011;3252;52.540;13.290;2022-08-19T09:34:46;20.80;;;15.35;;
6438;SDS011;3252;52.540;13.290;2022-08-19T09:36:48;21.52;;;16.35;;
6438;SDS011;3252;52.540;13.290;2022-08-19T09:38:53;16.30;;;13.23;;
6438;SDS011;3252;52.540;13.290;2022-08-19T09:40:56;19.88;;;14.23;;
6438;SDS011;3252;52.540;13.290;2022-08-19T09:43:02;17.65;;;14.60;;
6438;SDS011;3252;52.540;13.290;2022-08-19T09:45:05;14.82;;;12.07;;
6438;SDS011;3252;52.540;13.290;2022-08-19T09:47:08;14.77;;;11.98;;
6438;SDS011;3252;52.540;13.290;2022-08-19T09:49:13;16.13;;;12.18;;
6438;SDS011;3252;52.540;13.290;2022-08-19T09:51:16;14.95;;;12.05;;
6438;SDS011;3252;52.540;13.290;2022-08-19T09:53:19;16.77;;;12.57;;
6438;SDS011;3252;52.540;13.290;2022-08-19T09:55:24;13.63;;;12.32;;
6438;SDS011;3252;52.540;13.290;2022-08-19T09:57:26;13.98;;;12.55;;
6438;SDS011;3252;52.540;13.290;2022-08-19T09:59:28;15.30;;;12.15;;
6438;SDS011;3252;52.540;13.290;2022-08-19T10:01:31;14.35;;;12.85;;
6438;SDS011;3252;52.540;13.290;2022-08-19T10:03:35;12.85;;;11.63;;
6438;SDS011;3252;52.540;13.290;2022-08-19T10:05:39;13.98;;;12.52;;
6438;SDS011;3252;52.540;13.290;2022-08-19T10:07:49;16.15;;;11.68;;
6438;SDS011;3252;52.540;13.290;2022-08-19T10:09:52;12.75;;;11.38;;
6438;SDS011;3252;52.540;13.290;2022-08-19T10:11:54;13.30;;;11.93;;
6438;SDS011;3252;52.540;13.290;2022-08-19T10:13:56;12.60;;;11.23;;
6438;SDS011;3252;52.540;13.290;2022-08-19T10:16:03;13.52;;;11.18;;
6438;SDS011;3252;52.540;13.290;2022-08-19T10:18:06;12.40;;;11.10;;
6438;SDS011;3252;52.540;13.290;2022-08-19T10:20:09;12.90;;;11.60;;
6438;SDS011;3252;52.540;13.290;2022-08-19T10:22:13;12.10;;;11.00;;
6438;SDS011;3252;52.540;13.290;2022-08-19T10:24:15;12.77;;;11.43;;
6438;SDS011;3252;52.540;13.290;2022-08-19T10:26:18;13.63;;;12.23;;
6438;SDS011;3252;52.540;13.290;2022-08-19T10:28:21;20.75;;;13.68;;
6438;SDS011;3252;52.540;13.290;2022-08-19T10:30:24;17.08;;;13.55;;
6438;SDS011;3252;52.540;13.290;2022-08-19T10:32:26;28.17;;;18.55;;
6438;SDS011;3252;52.540;13.290;2022-08-19T10:34:29;18.58;;;12.05;;
6438;SDS011;3252;52.540;13.290;2022-08-19T10:36:32;17.80;;;11.95;;
6438;SDS011;3252;52.540;13.290;2022-08-19T10:38:38;14.63;;;10.82;;
6438;SDS011;3252;52.540;13.290;2022-08-19T10:40:40;15.52;;;10.95;;
6438;SDS011;3252;52.540;13.290;2022-08-19T10:42:41;21.13;;;14.48;;
6438;SDS011;3252;52.540;13.290;2022-08-19T10:44:44;38.15;;;24.15;;
6438;SDS011;3252;52.540;13.290;2022-08-19T10:46:48;31.85;;;19.90;;
6438;SDS011;3252;52.540;13.290;2022-08-19T10:48:50;16.65;;;13.10;;
6438;SDS011;3252;52.540;13.290;2022-08-19T10:50:52;25.25;;;17.60;;
6438;SDS011;3252;52.540;13.290;2022-08-19T10:53:12;17.38;;;13.43;;
6438;SDS011;3252;52.540;13.290;2022-08-19T10:55:15;16.45;;;14.30;;
6438;SDS011;3252;52.540;13.290;2022-08-19T10:57:36;19.30;;;14.00;;
6438;SDS011;3252;52.540;13.290;2022-08-19T10:59:39;12.82;;;10.73;;
6438;SDS011;3252;52.540;13.290;2022-08-19T11:01:42;12.43;;;11.13;;
6438;SDS011;3252;52.540;13.290;2022-08-19T11:03:45;12.70;;;10.43;;
6438;SDS011;3252;52.540;13.290;2022-08-19T11:05:59;13.93;;;11.70;;
6438;SDS011;3252;52.540;13.290;2022-08-19T11:08:02;17.52;;;11.75;;
6438;SDS011;3252;52.540;13.290;2022-08-19T11:10:06;18.92;;;14.77;;
6438;SDS011;3252;52.540;13.290;2022-08-19T11:12:11;19.95;;;12.70;;
6438;SDS011;3252;52.540;13.290;2022-08-19T11:14:15;21.60;;;13.52;;
6438;SDS011;3252;52.540;13.290;2022-08-19T11:16:22;25.70;;;17.40;;
6438;SDS011;3252;52.540;13.290;2022-08-19T11:18:26;23.00;;;14.23;;
6438;SDS011;3252;52.540;13.290;2022-08-19T11:20:29;10.38;;;9.38;;
6438;SDS011;3252;52.540;13.290;2022-08-19T11:22:31;11.93;;;9.88;;
6438;SDS011;3252;52.540;13.290;2022-08-19T11:24:33;12.82;;;9.82;;
6438;SDS011;3252;52.540;13.290;2022-08-19T11:26:35;12.98;;;10.10;;
6438;SDS011;3252;52.540;13.290;2022-08-19T11:28:40;29.45;;;16.88;;
6438;SDS011;3252;52.540;13.290;2022-08-19T11:30:42;20.40;;;14.55;;
6438;SDS011;3252;52.540;13.290;2022-08-19T11:32:44;13.52;;;11.93;;
6438;SDS011;3252;52.540;13.290;2022-08-19T11:34:46;15.32;;;12.30;;
6438;SDS011;3252;52.540;13.290;2022-08-19T11:36:49;10.20;;;9.02;;
6438;SDS011;3252;52.540;13.290;2022-08-19T11:38:52;10.07;;;8.63;;
6438;SDS011;3252;52.540;13.290;2022-08-19T11:40:56;10.73;;;9.63;;
6438;SDS011;3252;52.540;13.290;2022-08-19T11:42:59;10.23;;;8.77;;
6438;SDS011;3252;52.540;13.290;2022-08-19T11:45:02;11.07;;;9.98;;
6438;SDS011;3252;52.540;13.290;2022-08-19T11:47:05;10.20;;;9.23;;
6438;SDS011;3252;52.540;13.290;2022-08-19T11:49:07;12.38;;;9.73;;
6438;SDS011;3252;52.540;13.290;2022-08-19T11:51:11;18.52;;;12.35;;
6438;SDS011;3252;52.540;13.290;2022-08-19T11:53:15;13.77;;;10.70;;
6438;SDS011;3252;52.540;13.290;2022-08-19T11:55:18;14.15;;;10.30;;
6438;SDS011;3252;52.540;13.290;2022-08-19T11:57:20;10.73;;;8.25;;
6438;SDS011;3252;52.540;13.290;2022-08-19T11:59:22;8.75;;;7.85;;
6438;SDS011;3252;52.540;13.290;2022-08-19T12:01:28;10.88;;;8.85;;
6438;SDS011;3252;52.540;13.290;2022-08-19T12:03:31;11.30;;;7.35;;
6438;SDS011;3252;52.540;13.290;2022-08-19T12:05:35;10.60;;;8.23;;
6438;SDS011;3252;52.540;13.290;2022-08-19T12:07:38;12.75;;;9.68;;
6438;SDS011;3252;52.540;13.290;2022-08-19T12:09:41;9.43;;;7.95;;
6438;SDS011;3252;52.540;13.290;2022-08-19T12:11:43;10.25;;;8.73;;
6438;SDS011;3252;52.540;13.290;2022-08-19T12:13:46;9.77;;;7.95;;
6438;SDS011;3252;52.540;13.290;2022-08-19T12:15:48;11.55;;;8.23;;
6438;SDS011;3252;52.540;13.290;2022-08-19T12:17:51;8.68;;;7.57;;
6438;SDS011;3252;52.540;13.290;2022-08-19T12:19:56;14.13;;;10.50;;